createdAt,value
2019-06-01T00:00:11.998Z,8.60
2019-06-01T00:02:38.581Z,8.50
2019-06-01T00:05:08.453Z,8.40
2019-06-01T00:07:37.160Z,8.40
2019-06-01T00:10:07.489Z,8.50
2019-06-01T00:12:36.269Z,8.50
2019-06-01T00:15:06.241Z,8.50
2019-06-01T00:17:34.954Z,8.40
2019-06-01T00:20:04.881Z,8.40
2019-06-01T00:22:33.597Z,8.40
2019-06-01T00:25:02.433Z,8.30
2019-06-01T00:27:31.151Z,8.20
2019-06-01T00:29:59.864Z,8.20
2019-06-01T00:32:28.654Z,8.20
2019-06-01T00:34:57.372Z,8.20
2019-06-01T00:37:26.096Z,8.20
2019-06-01T00:39:54.827Z,8.20
2019-06-01T00:42:23.536Z,8.10
2019-06-01T00:44:52.567Z,8.00
2019-06-01T00:47:21.280Z,7.90
2019-06-01T00:49:51.077Z,7.90
2019-06-01T00:52:19.877Z,8.00
2019-06-01T00:54:49.490Z,8.00
2019-06-01T00:57:18.392Z,8.00
2019-06-01T00:59:48.067Z,7.90
2019-06-01T01:02:16.947Z,7.90
2019-06-01T01:04:46.402Z,7.90
2019-06-01T01:07:15.196Z,7.80
2019-06-01T01:09:44.805Z,7.70
2019-06-01T01:12:13.712Z,7.70
2019-06-01T01:14:42.442Z,7.70
2019-06-01T01:17:11.165Z,7.70
2019-06-01T01:19:39.918Z,7.70
2019-06-01T01:22:08.637Z,7.70
2019-06-01T01:24:37.367Z,7.70
2019-06-01T01:27:06.083Z,7.70
2019-06-01T01:29:34.801Z,7.70
2019-06-01T01:32:03.509Z,7.70
2019-06-01T01:34:32.239Z,7.60
2019-06-01T01:37:00.958Z,7.60
2019-06-01T01:39:29.713Z,7.60
2019-06-01T01:41:58.658Z,7.50
2019-06-01T01:44:27.415Z,7.50
2019-06-01T01:46:56.995Z,7.50
2019-06-01T01:49:25.730Z,7.50
2019-06-01T01:51:55.432Z,7.50
2019-06-01T01:54:24.286Z,7.50
2019-06-01T01:56:54.145Z,7.50
2019-06-01T01:59:22.926Z,7.40
2019-06-01T02:01:52.524Z,7.40
2019-06-01T02:04:21.388Z,7.40
2019-06-01T02:06:50.108Z,7.30
2019-06-01T02:09:18.836Z,7.30
2019-06-01T02:11:47.561Z,7.30
2019-06-01T02:14:16.287Z,7.40
2019-06-01T02:16:45.001Z,7.40
2019-06-01T02:19:13.724Z,7.40
2019-06-01T02:21:42.455Z,7.40
2019-06-01T02:24:11.236Z,7.40
2019-06-01T02:26:39.981Z,7.40
2019-06-01T02:29:08.705Z,7.40
2019-06-01T02:31:42.461Z,7.40
2019-06-01T02:34:07.805Z,7.40
2019-06-01T02:36:36.524Z,7.40
2019-06-01T02:39:18.921Z,7.50
2019-06-01T02:41:41.939Z,7.50
2019-06-01T02:44:10.651Z,7.50
2019-06-01T02:46:39.371Z,7.60
2019-06-01T02:49:08.090Z,7.60
2019-06-01T02:51:36.812Z,7.60
2019-06-01T02:54:06.309Z,7.70
2019-06-01T02:56:35.156Z,7.80
2019-06-01T02:59:04.486Z,7.80
2019-06-01T03:01:35.848Z,7.90
2019-06-01T03:04:08.141Z,8.00
2019-06-01T03:06:39.500Z,8.20
2019-06-01T03:09:09.740Z,8.50
2019-06-01T03:11:40.727Z,8.60
2019-06-01T03:14:11.046Z,8.70
2019-06-01T03:16:41.548Z,8.70
2019-06-01T03:19:10.455Z,8.70
2019-06-01T03:21:39.252Z,8.70
2019-06-01T03:24:13.231Z,8.70
2019-06-01T03:26:45.008Z,8.70
2019-06-01T03:29:16.599Z,8.70
2019-06-01T03:31:45.493Z,8.80
2019-06-01T03:34:14.541Z,8.80
2019-06-01T03:36:44.014Z,8.80
2019-06-01T03:39:13.040Z,8.90
2019-06-01T03:41:42.461Z,9.00
2019-06-01T03:44:11.182Z,9.00
2019-06-01T03:46:39.908Z,9.10
2019-06-01T03:49:09.792Z,9.20
2019-06-01T03:51:38.635Z,9.20
2019-06-01T03:54:08.606Z,9.30
2019-06-01T03:56:37.876Z,9.30
2019-06-01T03:59:07.239Z,9.40
2019-06-01T04:01:36.184Z,9.50
2019-06-01T04:04:05.409Z,9.50
2019-06-01T04:06:34.276Z,9.50
2019-06-01T04:09:05.577Z,9.50
2019-06-01T04:11:34.507Z,9.60
2019-06-01T04:14:04.133Z,9.60
2019-06-01T04:16:32.957Z,9.60
2019-06-01T04:19:07.947Z,9.60
2019-06-01T04:21:36.897Z,9.70
2019-06-01T04:24:05.986Z,9.80
2019-06-01T04:26:34.835Z,9.90
2019-06-01T04:29:04.882Z,10.00
2019-06-01T04:31:34.010Z,10.10
2019-06-01T04:34:02.876Z,10.20
2019-06-01T04:36:31.677Z,10.30
2019-06-01T04:39:00.396Z,10.40
2019-06-01T04:41:29.124Z,10.60
2019-06-01T04:43:57.908Z,10.60
2019-06-01T04:46:26.624Z,10.70
2019-06-01T04:48:55.348Z,10.70
2019-06-01T04:51:24.084Z,10.70
2019-06-01T04:53:52.860Z,10.80
2019-06-01T04:56:21.614Z,11.00
2019-06-01T04:58:51.311Z,11.00
2019-06-01T05:01:20.132Z,11.10
2019-06-01T05:03:48.851Z,11.20
2019-06-01T05:06:17.652Z,11.30
2019-06-01T05:08:46.365Z,11.40
2019-06-01T05:11:15.742Z,11.60
2019-06-01T05:13:44.687Z,11.70
2019-06-01T05:16:14.829Z,11.90
2019-06-01T05:18:43.837Z,12.00
2019-06-01T05:21:12.920Z,12.10
2019-06-01T05:23:41.913Z,12.10
2019-06-01T05:26:10.966Z,12.10
2019-06-01T05:28:39.805Z,12.10
2019-06-01T05:31:12.846Z,12.20
2019-06-01T05:33:38.901Z,12.20
2019-06-01T05:36:08.022Z,12.10
2019-06-01T05:38:36.885Z,12.00
2019-06-01T05:41:05.660Z,12.00
2019-06-01T05:43:34.384Z,12.00
2019-06-01T05:46:03.100Z,12.00
2019-06-01T05:48:31.866Z,11.90
2019-06-01T05:51:00.661Z,11.90
2019-06-01T05:53:29.431Z,12.00
2019-06-01T05:55:58.159Z,12.00
2019-06-01T05:58:29.275Z,12.10
2019-06-01T06:00:57.329Z,12.20
2019-06-01T06:03:39.549Z,12.30
2019-06-01T06:05:56.421Z,12.60
2019-06-01T06:08:25.136Z,12.70
2019-06-01T06:10:53.853Z,12.80
2019-06-01T06:13:22.584Z,12.90
2019-06-01T06:15:51.500Z,13.00
2019-06-01T06:18:20.224Z,13.00
2019-06-01T06:20:48.941Z,13.10
2019-06-01T06:23:18.498Z,13.00
2019-06-01T06:25:47.353Z,13.00
2019-06-01T06:28:16.668Z,12.90
2019-06-01T06:30:45.532Z,12.80
2019-06-01T06:33:15.192Z,12.90
2019-06-01T06:35:44.044Z,13.00
2019-06-01T06:38:13.608Z,13.00
2019-06-01T06:40:42.434Z,13.20
2019-06-01T06:43:20.110Z,13.20
2019-06-01T06:45:41.508Z,13.10
2019-06-01T06:48:10.249Z,13.00
2019-06-01T06:50:38.973Z,13.00
2019-06-01T06:53:07.706Z,13.10
2019-06-01T06:55:36.437Z,13.10
2019-06-01T06:58:05.149Z,13.10
2019-06-01T07:00:34.057Z,13.20
2019-06-01T07:03:03.072Z,13.10
2019-06-01T07:05:31.903Z,12.90
2019-06-01T07:08:00.651Z,13.20
2019-06-01T07:10:29.375Z,13.30
2019-06-01T07:12:58.081Z,13.40
2019-06-01T07:15:27.629Z,13.60
2019-06-01T07:17:56.504Z,13.60
2019-06-01T07:20:25.695Z,13.60
2019-06-01T07:22:54.561Z,13.60
2019-06-01T07:25:23.299Z,13.50
2019-06-01T07:27:52.028Z,13.60
2019-06-01T07:30:22.099Z,13.50
2019-06-01T07:32:50.940Z,13.60
2019-06-01T07:35:20.511Z,13.60
2019-06-01T07:37:49.386Z,13.60
2019-06-01T07:40:18.121Z,13.80
2019-06-01T07:42:47.227Z,14.00
2019-06-01T07:45:15.952Z,14.10
2019-06-01T07:47:44.772Z,14.30
2019-06-01T07:50:13.503Z,14.50
2019-06-01T07:52:42.226Z,14.50
2019-06-01T07:55:12.439Z,14.40
2019-06-01T07:57:43.538Z,14.50
2019-06-01T08:00:11.882Z,14.80
2019-06-01T08:02:40.608Z,14.80
2019-06-01T08:05:09.614Z,14.60
2019-06-01T08:07:38.446Z,14.70
2019-06-01T08:10:07.357Z,14.80
2019-06-01T08:12:36.193Z,14.90
2019-06-01T08:15:08.722Z,14.90
2019-06-01T08:17:37.506Z,15.10
2019-06-01T08:20:06.429Z,15.40
2019-06-01T08:22:35.159Z,15.60
2019-06-01T08:25:05.207Z,15.50
2019-06-01T08:27:33.965Z,15.60
2019-06-01T08:30:02.764Z,15.60
2019-06-01T08:32:32.779Z,15.80
2019-06-01T08:35:08.479Z,16.10
2019-06-01T08:37:33.275Z,16.40
2019-06-01T08:40:02.280Z,16.40
2019-06-01T08:42:31.616Z,16.50
2019-06-01T08:45:00.433Z,16.60
2019-06-01T08:47:30.003Z,16.40
2019-06-01T08:49:58.949Z,16.70
2019-06-01T08:52:28.030Z,16.70
2019-06-01T08:54:56.894Z,16.80
2019-06-01T08:57:26.125Z,16.90
2019-06-01T08:59:54.844Z,16.90
2019-06-01T09:02:24.534Z,16.90
2019-06-01T09:04:53.563Z,17.00
2019-06-01T09:07:22.275Z,16.90
2019-06-01T09:09:51.018Z,16.90
2019-06-01T09:12:19.797Z,17.00
2019-06-01T09:14:48.644Z,17.10
2019-06-01T09:17:18.713Z,17.20
2019-06-01T09:19:47.755Z,16.90
2019-06-01T09:22:16.487Z,17.00
2019-06-01T09:24:45.211Z,17.30
2019-06-01T09:27:14.036Z,17.40
2019-06-01T09:29:44.750Z,17.40
2019-06-01T09:32:13.167Z,17.30
2019-06-01T09:34:42.768Z,17.20
2019-06-01T09:37:11.492Z,17.40
2019-06-01T09:39:40.329Z,17.30
2019-06-01T09:42:11.008Z,17.40
2019-06-01T09:44:39.422Z,17.50
2019-06-01T09:47:08.144Z,17.60
2019-06-01T09:49:39.731Z,17.60
2019-06-01T09:52:12.303Z,17.70
2019-06-01T09:54:38.956Z,17.80
2019-06-01T09:57:07.679Z,17.80
2019-06-01T09:59:36.395Z,17.80
2019-06-01T10:02:05.121Z,17.80
2019-06-01T10:04:34.394Z,17.90
2019-06-01T10:07:03.276Z,17.90
2019-06-01T10:09:32.004Z,18.00
2019-06-01T10:12:01.206Z,18.10
2019-06-01T10:14:30.119Z,18.10
2019-06-01T10:16:59.077Z,18.40
2019-06-01T10:19:27.800Z,18.60
2019-06-01T10:21:56.527Z,18.60
2019-06-01T10:24:26.169Z,18.60
2019-06-01T10:26:55.342Z,18.60
2019-06-01T10:29:24.083Z,18.70
2019-06-01T10:31:52.793Z,18.70
2019-06-01T10:34:21.552Z,18.80
2019-06-01T10:36:50.255Z,18.80
2019-06-01T10:39:19.731Z,18.80
2019-06-01T10:41:48.628Z,19.00
2019-06-01T10:44:18.738Z,18.90
2019-06-01T10:46:48.924Z,19.00
2019-06-01T10:49:17.625Z,18.80
2019-06-01T10:51:46.458Z,18.80
2019-06-01T10:54:15.181Z,18.80
2019-06-01T10:56:46.499Z,19.10
2019-06-01T10:59:15.372Z,19.20
2019-06-01T11:01:45.220Z,19.20
2019-06-01T11:04:13.941Z,19.20
2019-06-01T11:06:48.169Z,19.10
2019-06-01T11:09:13.107Z,19.30
2019-06-01T11:11:43.130Z,19.20
2019-06-01T11:14:11.952Z,19.10
2019-06-01T11:16:41.844Z,19.30
2019-06-01T11:19:10.773Z,19.10
2019-06-01T11:21:39.573Z,19.10
2019-06-01T11:24:08.305Z,19.10
2019-06-01T11:26:37.606Z,19.20
2019-06-01T11:29:06.443Z,19.50
2019-06-01T11:31:36.020Z,19.80
2019-06-01T11:34:04.804Z,20.10
2019-06-01T11:36:34.229Z,19.90
2019-06-01T11:39:03.204Z,19.70
2019-06-01T11:41:31.930Z,19.80
2019-06-01T11:44:00.645Z,19.80
2019-06-01T11:46:29.374Z,19.90
2019-06-01T11:48:58.092Z,19.80
2019-06-01T11:51:26.837Z,19.70
2019-06-01T11:53:55.568Z,20.00
2019-06-01T11:56:24.293Z,20.20
2019-06-01T11:58:53.012Z,20.10
2019-06-01T12:01:21.732Z,20.00
2019-06-01T12:03:50.452Z,20.10
2019-06-01T12:06:19.175Z,20.10
2019-06-01T12:08:48.169Z,20.20
2019-06-01T12:11:17.057Z,20.20
2019-06-01T12:13:46.576Z,20.20
2019-06-01T12:16:15.428Z,20.00
2019-06-01T12:18:44.737Z,20.00
2019-06-01T12:21:13.580Z,19.80
2019-06-01T12:23:43.210Z,19.40
2019-06-01T12:26:12.030Z,19.30
2019-06-01T12:28:41.559Z,19.20
2019-06-01T12:31:10.364Z,19.10
2019-06-01T12:33:39.865Z,19.20
2019-06-01T12:36:08.709Z,19.30
2019-06-01T12:38:53.318Z,19.50
2019-06-01T12:41:23.043Z,19.70
2019-06-01T12:44:09.261Z,19.90
2019-06-01T12:46:39.792Z,20.10
2019-06-01T12:49:08.824Z,20.00
2019-06-01T12:51:37.547Z,20.00
2019-06-01T12:54:06.767Z,19.60
2019-06-01T12:56:35.741Z,19.60
2019-06-01T12:59:04.849Z,19.50
2019-06-01T13:01:33.685Z,19.70
2019-06-01T13:04:03.105Z,19.80
2019-06-01T13:06:31.930Z,19.80
2019-06-01T13:09:02.088Z,20.10
2019-06-01T13:11:30.834Z,20.20
2019-06-01T13:13:59.565Z,20.40
2019-06-01T13:16:29.829Z,20.60
2019-06-01T13:18:58.557Z,20.30
2019-06-01T13:21:27.870Z,20.00
2019-06-01T13:23:56.825Z,19.80
2019-06-01T13:26:25.577Z,19.90
2019-06-01T13:28:54.413Z,20.00
2019-06-01T13:31:23.286Z,20.30
2019-06-01T13:33:54.189Z,20.50
2019-06-01T13:36:26.819Z,20.50
2019-06-01T13:38:53.199Z,20.70
2019-06-01T13:41:22.041Z,20.70
2019-06-01T13:43:51.448Z,20.60
2019-06-01T13:46:20.318Z,20.30
2019-06-01T13:48:52.667Z,20.00
2019-06-01T13:51:21.644Z,20.10
2019-06-01T13:53:50.566Z,20.10
2019-06-01T13:56:19.361Z,19.80
2019-06-01T13:58:48.228Z,19.90
2019-06-01T14:01:17.009Z,19.90
2019-06-01T14:03:47.111Z,20.20
2019-06-01T14:06:16.040Z,20.40
2019-06-01T14:08:45.052Z,20.40
2019-06-01T14:11:13.885Z,20.40
2019-06-01T14:13:42.651Z,20.40
2019-06-01T14:16:11.361Z,20.40
2019-06-01T14:18:40.105Z,20.50
2019-06-01T14:21:08.821Z,20.60
2019-06-01T14:23:37.548Z,20.50
2019-06-01T14:26:06.288Z,20.60
2019-06-01T14:28:35.025Z,20.60
2019-06-01T14:31:03.832Z,20.60
2019-06-01T14:33:32.537Z,20.80
2019-06-01T14:36:01.249Z,21.30
2019-06-01T14:38:45.963Z,21.50
2019-06-01T14:41:00.401Z,21.50
2019-06-01T14:43:29.165Z,21.80
2019-06-01T14:45:58.108Z,22.20
2019-06-01T14:48:26.897Z,22.80
2019-06-01T14:50:55.859Z,22.90
2019-06-01T14:53:24.653Z,23.10
2019-06-01T14:55:53.914Z,23.60
2019-06-01T14:58:22.692Z,23.70
2019-06-01T15:00:52.631Z,22.90
2019-06-01T15:03:22.890Z,22.40
2019-06-01T15:05:52.256Z,21.80
2019-06-01T15:08:21.009Z,21.30
2019-06-01T15:10:50.461Z,21.10
2019-06-01T15:13:19.500Z,21.40
2019-06-01T15:15:49.355Z,21.30
2019-06-01T15:18:18.239Z,21.80
2019-06-01T15:20:46.959Z,22.20
2019-06-01T15:23:15.681Z,22.40
2019-06-01T15:25:44.396Z,22.70
2019-06-01T15:28:14.025Z,23.20
2019-06-01T15:30:42.756Z,23.60
2019-06-01T15:33:11.465Z,24.30
2019-06-01T15:35:40.177Z,24.50
2019-06-01T15:38:08.918Z,24.50
2019-06-01T15:40:37.627Z,24.00
2019-06-01T15:43:06.354Z,23.90
2019-06-01T15:45:35.069Z,23.60
2019-06-01T15:48:03.884Z,23.10
2019-06-01T15:50:32.622Z,23.00
2019-06-01T15:53:01.462Z,23.00
2019-06-01T15:55:30.260Z,22.90
2019-06-01T15:57:59.027Z,22.40
2019-06-01T16:00:27.818Z,22.10
2019-06-01T16:02:56.844Z,22.10
2019-06-01T16:05:25.656Z,21.70
2019-06-01T16:07:55.102Z,21.40
2019-06-01T16:10:23.903Z,21.10
2019-06-01T16:12:53.381Z,21.10
2019-06-01T16:15:22.180Z,21.10
2019-06-01T16:17:50.884Z,21.10
2019-06-01T16:20:19.669Z,21.20
2019-06-01T16:22:48.428Z,21.10
2019-06-01T16:25:17.272Z,20.90
2019-06-01T16:27:45.985Z,20.70
2019-06-01T16:30:14.908Z,20.70
2019-06-01T16:32:43.617Z,20.80
2019-06-01T16:35:12.533Z,20.80
2019-06-01T16:37:41.245Z,20.80
2019-06-01T16:40:10.990Z,20.60
2019-06-01T16:42:39.831Z,20.30
2019-06-01T16:45:09.296Z,20.10
2019-06-01T16:47:37.968Z,20.10
2019-06-01T16:50:08.460Z,20.10
2019-06-01T16:52:37.196Z,20.10
2019-06-01T16:55:07.130Z,20.00
2019-06-01T16:57:36.051Z,20.00
2019-06-01T17:00:07.625Z,20.00
2019-06-01T17:02:36.388Z,19.90
2019-06-01T17:05:07.130Z,19.90
2019-06-01T17:07:35.948Z,19.80
2019-06-01T17:10:25.100Z,19.80
2019-06-01T17:12:43.195Z,19.80
2019-06-01T17:15:11.489Z,19.80
2019-06-01T17:17:40.210Z,19.70
2019-06-01T17:20:28.573Z,19.70
2019-06-01T17:22:57.559Z,19.70
2019-06-01T17:25:26.394Z,19.60
2019-06-01T17:27:55.164Z,19.50
2019-06-01T17:30:23.878Z,19.50
2019-06-01T17:32:52.623Z,19.50
2019-06-01T17:35:21.428Z,19.50
2019-06-01T17:37:50.162Z,19.40
2019-06-01T17:40:33.605Z,19.30
2019-06-01T17:42:49.313Z,19.30
2019-06-01T17:45:18.240Z,19.30
2019-06-01T17:47:46.949Z,19.30
2019-06-01T17:50:18.217Z,19.20
2019-06-01T17:52:46.028Z,19.20
2019-06-01T17:55:32.989Z,19.20
2019-06-01T17:58:01.801Z,19.20
2019-06-01T18:00:31.337Z,19.10
2019-06-01T18:03:00.040Z,19.00
2019-06-01T18:05:28.760Z,19.00
2019-06-01T18:07:57.476Z,18.90
2019-06-01T18:10:26.908Z,18.80
2019-06-01T18:12:55.725Z,18.80
2019-06-01T18:15:24.557Z,18.80
2019-06-01T18:17:53.296Z,18.70
2019-06-01T18:20:22.013Z,18.70
2019-06-01T18:22:50.737Z,18.60
2019-06-01T18:25:22.635Z,18.60
2019-06-01T18:27:51.443Z,18.50
2019-06-01T18:30:21.941Z,18.40
2019-06-01T18:32:51.166Z,18.40
2019-06-01T18:35:19.912Z,18.30
2019-06-01T18:37:48.600Z,18.20
2019-06-01T18:40:20.360Z,18.20
2019-06-01T18:42:51.048Z,18.20
2019-06-01T18:45:20.441Z,18.10
2019-06-01T18:47:49.666Z,18.10
2019-06-01T18:50:19.004Z,18.00
2019-06-01T18:52:47.792Z,18.00
2019-06-01T18:55:16.925Z,18.00
2019-06-01T18:57:48.572Z,17.90
2019-06-01T19:00:17.588Z,17.90
2019-06-01T19:02:46.308Z,17.90
2019-06-01T19:05:15.539Z,17.80
2019-06-01T19:07:44.448Z,17.80
2019-06-01T19:10:14.227Z,17.80
2019-06-01T19:12:43.363Z,17.80
2019-06-01T19:15:25.358Z,17.70
2019-06-01T19:17:43.214Z,17.70
2019-06-01T19:20:15.160Z,17.70
2019-06-01T19:22:43.870Z,17.60
2019-06-01T19:25:14.662Z,17.60
2019-06-01T19:27:43.604Z,17.60
2019-06-01T19:30:12.952Z,17.50
2019-06-01T19:32:42.580Z,17.50
2019-06-01T19:35:13.301Z,17.40
2019-06-01T19:37:42.868Z,17.40
2019-06-01T19:40:13.401Z,17.40
2019-06-01T19:42:42.214Z,17.40
2019-06-01T19:45:22.582Z,17.30
2019-06-01T19:47:41.427Z,17.30
2019-06-01T19:50:10.409Z,17.30
2019-06-01T19:52:39.184Z,17.20
2019-06-01T19:55:08.965Z,17.20
2019-06-01T19:57:37.834Z,17.20
2019-06-01T20:00:07.690Z,17.20
2019-06-01T20:02:36.456Z,17.10
2019-06-01T20:05:06.269Z,17.10
2019-06-01T20:07:34.992Z,17.10
2019-06-01T20:10:07.599Z,17.10
2019-06-01T20:12:36.297Z,17.00
2019-06-01T20:15:06.985Z,17.00
2019-06-01T20:17:35.709Z,17.00
2019-06-01T20:20:07.358Z,16.90
2019-06-01T20:22:36.084Z,16.90
2019-06-01T20:25:06.384Z,16.90
2019-06-01T20:27:35.116Z,16.90
2019-06-01T20:30:07.807Z,16.80
2019-06-01T20:32:36.521Z,16.80
2019-06-01T20:35:08.844Z,16.80
2019-06-01T20:37:37.565Z,16.80
2019-06-01T20:40:09.655Z,16.70
2019-06-01T20:42:38.392Z,16.70
2019-06-01T20:45:08.316Z,16.70
2019-06-01T20:47:37.093Z,16.70
2019-06-01T20:50:08.057Z,16.60
2019-06-01T20:52:36.767Z,16.60
2019-06-01T20:55:08.840Z,16.60
2019-06-01T20:57:37.566Z,16.60
2019-06-01T21:00:10.187Z,16.60
2019-06-01T21:02:38.962Z,16.50
2019-06-01T21:05:09.706Z,16.50
2019-06-01T21:07:38.411Z,16.50
2019-06-01T21:10:09.413Z,16.40
2019-06-01T21:12:46.189Z,16.40
2019-06-01T21:15:10.297Z,16.30
2019-06-01T21:17:39.136Z,16.30
2019-06-01T21:20:09.893Z,16.30
2019-06-01T21:22:38.808Z,16.30
2019-06-01T21:25:08.130Z,16.30
2019-06-01T21:27:36.855Z,16.30
2019-06-01T21:30:08.796Z,16.20
2019-06-01T21:32:37.573Z,16.20
2019-06-01T21:35:06.736Z,16.10
2019-06-01T21:37:35.461Z,16.10
2019-06-01T21:40:09.383Z,16.00
2019-06-01T21:42:38.662Z,15.90
2019-06-01T21:45:11.146Z,15.80
2019-06-01T21:47:39.875Z,15.80
2019-06-01T21:50:08.889Z,15.80
2019-06-01T21:52:37.613Z,15.70
2019-06-01T21:55:07.321Z,15.60
2019-06-01T21:57:36.045Z,15.50
2019-06-01T22:00:10.560Z,15.50
2019-06-01T22:02:39.305Z,15.50
2019-06-01T22:05:08.528Z,15.40
2019-06-01T22:07:37.252Z,15.40
2019-06-01T22:10:06.668Z,15.40
2019-06-01T22:12:35.364Z,15.30
2019-06-01T22:15:05.295Z,15.30
2019-06-01T22:17:34.025Z,15.30
2019-06-01T22:20:02.757Z,15.20
2019-06-01T22:22:31.504Z,15.20
2019-06-01T22:25:00.200Z,15.20
2019-06-01T22:27:28.964Z,15.20
2019-06-01T22:29:57.680Z,15.10
2019-06-01T22:32:29.468Z,15.10
2019-06-01T22:34:56.760Z,15.00
2019-06-01T22:37:25.785Z,14.90
2019-06-01T22:39:54.593Z,14.90
2019-06-01T22:42:24.313Z,14.90
2019-06-01T22:44:53.204Z,14.80
2019-06-01T22:47:22.512Z,14.80
2019-06-01T22:49:51.221Z,14.80
2019-06-01T22:52:20.951Z,14.80
2019-06-01T22:54:49.847Z,14.90
2019-06-01T22:57:18.584Z,14.90
2019-06-01T22:59:47.297Z,14.90
2019-06-01T23:02:16.019Z,14.90
2019-06-01T23:04:44.740Z,14.90
2019-06-01T23:07:13.453Z,14.80
2019-06-01T23:09:42.464Z,14.80
2019-06-01T23:12:11.186Z,14.70
2019-06-01T23:14:39.900Z,14.70
2019-06-01T23:17:08.617Z,14.70
2019-06-01T23:19:37.343Z,14.70
2019-06-01T23:22:06.060Z,14.70
2019-06-01T23:24:34.924Z,14.70
2019-06-01T23:27:03.769Z,14.70
2019-06-01T23:29:32.559Z,14.80
2019-06-01T23:32:01.288Z,14.80
2019-06-01T23:34:30.661Z,14.80
2019-06-01T23:36:59.444Z,14.80
2019-06-01T23:39:28.746Z,14.80
2019-06-01T23:41:57.580Z,14.80
2019-06-01T23:44:29.499Z,14.80
2019-06-01T23:46:56.668Z,14.80
2019-06-01T23:49:25.405Z,14.80
2019-06-01T23:51:54.127Z,14.70
2019-06-01T23:54:23.529Z,14.70
2019-06-01T23:56:52.378Z,14.70
2019-06-01T23:59:21.109Z,14.70
